WetterOnline ( http://www.wetteronline.de )

Wetter aktuell Hittbergen

Aktuelles Wetter: Boizenburg (46m)

6-stündlich | Neueste Meldungen
Ortszeit Temperatur Wetter
Fr, 22.03. 19:00 12.4° C leicht bewölkt
Fr, 22.03. 13:00 11.4° C bedeckt
Fr, 22.03. 7:00 8.3° C bedeckt
Fr, 22.03. 1:00 9.4° C bedeckt
Do, 21.03. 19:00 11.2° C bedeckt
Do, 21.03. 13:00 10.3° C bedeckt
Do, 21.03. 7:00 9.3° C bedeckt
Do, 21.03. 1:00 8.7° C bedeckt
Ortszeit Temperatur Wetter
Fr, 22.03. 22:30 9.2° C wolkenlos
Fr, 22.03. 22:20 9.2° C wolkenlos
Fr, 22.03. 22:10 9.3° C wolkenlos
Fr, 22.03. 22:00 9.7° C fast wolkenlos
Fr, 22.03. 21:50 9.7° C fast wolkenlos
Fr, 22.03. 21:40 9.8° C leicht bewölkt
Fr, 22.03. 21:30 9.9° C wolkenlos
Fr, 22.03. 21:00 10.3° C leicht bewölkt
Fr, 22.03. 20:30 10.7° C leicht bewölkt
Fr, 22.03. 20:00 11.2° C wolkig
Fr, 22.03. 19:30 11.8° C leicht bewölkt
Ortszeit Relative Feuchte Sichtweite
Fr, 22.03. 19:00 81% 4.3 km
Fr, 22.03. 13:00 80% 5.0 km
Fr, 22.03. 7:00 93% 4.0 km
Fr, 22.03. 1:00 89% 4.9 km
Do, 21.03. 19:00 79% 7 km
Do, 21.03. 13:00 86% 7 km
Do, 21.03. 7:00 89% 4.9 km
Do, 21.03. 1:00 97% 1.9 km
Ortszeit Relative Feuchte Sichtweite
Fr, 22.03. 22:30 93% 3.1 km
Fr, 22.03. 22:20 93% -
Fr, 22.03. 22:10 93% -
Fr, 22.03. 22:00 92% 3.3 km
Fr, 22.03. 21:50 92% -
Fr, 22.03. 21:40 92% -
Fr, 22.03. 21:30 91% 3.4 km
Fr, 22.03. 21:00 90% 3.3 km
Fr, 22.03. 20:30 89% 3.4 km
Fr, 22.03. 20:00 86% 3.9 km
Fr, 22.03. 19:30 83% 4.0 km
Ortszeit Niederschlagsmenge Niederschlagsart
Fr, 22.03. 19:00 0.0 l/m2 in 12 Std. -
Fr, 22.03. 13:00 0.0 l/m2 in 6 Std. -
Fr, 22.03. 7:00 0.0 l/m2 in 12 Std. -
Fr, 22.03. 1:00 0.0 l/m2 in 6 Std. -
Do, 21.03. 19:00 0.0 l/m2 in 12 Std. -
Do, 21.03. 13:00 0.0 l/m2 in 6 Std. -
Do, 21.03. 7:00 0.0 l/m2 in 12 Std. -
Do, 21.03. 1:00 0.0 l/m2 in 6 Std. -
Ortszeit Niederschlagsmenge Niederschlagsart
Fr, 22.03. 22:30 0.0 l/m2 in 1 Std. -
Fr, 22.03. 22:20 keine Meldung -
Fr, 22.03. 22:10 keine Meldung -
Fr, 22.03. 22:00 0.0 l/m2 in 1 Std. -
Fr, 22.03. 21:50 keine Meldung -
Fr, 22.03. 21:40 keine Meldung -
Fr, 22.03. 21:30 0.0 l/m2 in 1 Std. -
Fr, 22.03. 21:00 0.0 l/m2 in 1 Std. -
Fr, 22.03. 20:30 0.0 l/m2 in 1 Std. -
Fr, 22.03. 20:00 0.0 l/m2 in 1 Std. -
Fr, 22.03. 19:30 0.0 l/m2 in 1 Std. -
Ortszeit Stärke Spitze Richtung
km/h Bft. km/h Grad Sektor
Fr, 22.03. 19:00 14 3 22 120° SO
Fr, 22.03. 13:00 11 2 18 150° SO
Fr, 22.03. 7:00 4 1 14 40° NO
Fr, 22.03. 1:00 6 1 26 290° W
Do, 21.03. 19:00 11 2 28 270° W
Do, 21.03. 13:00 17 3 33 250° W
Do, 21.03. 7:00 15 3 22 230° SW
Do, 21.03. 1:00 11 2 28 250° W
Ortszeit Stärke Spitze Richtung
km/h Bft. km/h Grad Sektor
Fr, 22.03. 22:30 17 3 24 130° SO
Fr, 22.03. 22:20 17 3 - 130° SO
Fr, 22.03. 22:10 17 3 - 130° SO
Fr, 22.03. 22:00 19 3 26 130° SO
Fr, 22.03. 21:50 19 3 - 130° SO
Fr, 22.03. 21:40 18 3 - 130° SO
Fr, 22.03. 21:30 17 3 22 130° SO
Fr, 22.03. 21:00 17 3 22 120° SO
Fr, 22.03. 20:30 14 3 22 120° SO
Fr, 22.03. 20:00 14 3 22 120° SO
Fr, 22.03. 19:30 14 3 22 130° SO
Ortszeit Untergrenze Bedeckung Gattung
total tief tief mittel hoch
Fr, 22.03. 19:00 12000 m 4/8 0/8 - - -
Fr, 22.03. 13:00 390 m 8/8 8/8 - - -
Fr, 22.03. 7:00 180 m 8/8 8/8 - - -
Fr, 22.03. 1:00 330 m 8/8 8/8 - - -
Do, 21.03. 19:00 540 m 8/8 8/8 - - -
Do, 21.03. 13:00 330 m 8/8 8/8 - - -
Do, 21.03. 7:00 510 m 8/8 8/8 - - -
Do, 21.03. 1:00 450 m 8/8 8/8 - - -
Ortszeit Bedeckungsgrad in Achtel und Wolkenuntergrenze
Fr, 22.03. 22:30 keine Wolken
Fr, 22.03. 22:20 keine Wolken
Fr, 22.03. 22:10 keine Wolken
Fr, 22.03. 22:00 1(12000m)
Fr, 22.03. 21:50 1(12000m)
Fr, 22.03. 21:40 3(12000m)
Fr, 22.03. 21:30 1(12000m)
Fr, 22.03. 21:00 6(12000m)
Fr, 22.03. 20:30 3(12000m)
Fr, 22.03. 20:00 7(12000m)
Fr, 22.03. 19:30 4(12000m)
Ortszeit Luftdruck NN (hPa) Tendenz (hPa in 3 Std.)
Fr, 22.03. 19:00 1028 - 1,7
Fr, 22.03. 13:00 1032 - 1,6
Fr, 22.03. 7:00 1034 + 0,8
Fr, 22.03. 1:00 1034 - 0,1
Do, 21.03. 19:00 1033 - 0,1
Do, 21.03. 13:00 1034 + 0,3
Do, 21.03. 7:00 1033 0,0
Do, 21.03. 1:00 1033 + 0,3
Ortszeit Luftdruck NN (hPa) Tendenz (hPa in 3 Std.)
Fr, 22.03. 22:30 1027 - 0,6
Fr, 22.03. 22:20 1027 keine Meldung
Fr, 22.03. 22:10 1027 keine Meldung
Fr, 22.03. 22:00 1027 - 0,5
Fr, 22.03. 21:50 1027 keine Meldung
Fr, 22.03. 21:40 1027 keine Meldung
Fr, 22.03. 21:30 1028 0,0
Fr, 22.03. 21:00 1028 - 0,2
Fr, 22.03. 20:30 1028 - 0,3
Fr, 22.03. 20:00 1028 - 0,8
Fr, 22.03. 19:30 1028 - 1,4
Ortszeit Schneehöhe (cm)
Fr, 22.03. 19:00 0
Fr, 22.03. 13:00 0
Fr, 22.03. 7:00 0
Fr, 22.03. 1:00 0
Do, 21.03. 19:00 0
Do, 21.03. 13:00 0
Do, 21.03. 7:00 0
Do, 21.03. 1:00 0
Ortszeit Schneehöhe (cm)
Fr, 22.03. 22:30 0
Fr, 22.03. 22:20 0
Fr, 22.03. 22:10 0
Fr, 22.03. 22:00 0
Fr, 22.03. 21:50 0
Fr, 22.03. 21:40 0
Fr, 22.03. 21:30 0
Fr, 22.03. 21:00 0
Fr, 22.03. 20:30 0
Fr, 22.03. 20:00 0
Fr, 22.03. 19:30 0
Link zu dieser Seite / Seite empfehlen

Das Wetter in ...